createdAt,value
2022-08-18T19:24:47.793Z,16.17
2022-08-18T19:27:25.276Z,15.30
2022-08-18T19:29:59.369Z,15.80
2022-08-18T19:32:38.981Z,14.90
2022-08-18T19:35:14.006Z,16.30
2022-08-18T19:38:04.541Z,13.90
2022-08-18T19:40:45.169Z,17.10
2022-08-18T19:43:28.419Z,13.73
2022-08-18T19:46:10.493Z,11.83
2022-08-18T19:48:44.402Z,11.57
2022-08-18T19:51:19.092Z,11.50
2022-08-18T19:54:02.340Z,11.20
2022-08-18T19:56:49.059Z,11.53
2022-08-18T19:59:39.762Z,11.80
2022-08-18T20:02:20.883Z,11.33
2022-08-18T20:05:09.692Z,10.73
2022-08-18T20:07:55.632Z,10.30
2022-08-18T20:10:37.631Z,10.43
2022-08-18T20:13:35.331Z,10.47
2022-08-18T20:16:31.380Z,10.80
2022-08-18T20:19:41.892Z,9.53
2022-08-18T20:22:16.184Z,9.87
2022-08-18T20:24:52.129Z,10.70
2022-08-18T20:27:35.950Z,10.60
2022-08-18T20:30:32.076Z,10.53
2022-08-18T20:33:15.057Z,10.50
2022-08-18T20:35:47.965Z,10.27
2022-08-18T20:38:22.600Z,10.97
2022-08-18T20:40:52.485Z,10.43
2022-08-18T20:43:27.605Z,10.40
2022-08-18T20:46:08.533Z,11.10
2022-08-18T20:48:51.681Z,11.13
2022-08-18T20:51:25.370Z,10.80
2022-08-18T20:54:05.273Z,11.30
2022-08-18T20:56:47.011Z,11.90
2022-08-18T20:59:20.318Z,11.27
2022-08-18T21:02:02.489Z,11.83
2022-08-18T21:04:53.852Z,12.40
2022-08-18T21:07:36.822Z,12.37
2022-08-18T21:10:13.607Z,12.03
2022-08-18T21:12:52.106Z,13.10
2022-08-18T21:15:24.506Z,12.47
2022-08-18T21:18:02.861Z,13.27
2022-08-18T21:20:32.863Z,12.90
2022-08-18T21:23:08.123Z,13.07
2022-08-18T21:25:42.797Z,13.93
2022-08-18T21:28:13.346Z,14.77
2022-08-18T21:30:56.090Z,14.27
2022-08-18T21:33:50.772Z,14.43
2022-08-18T21:36:20.234Z,15.37
2022-08-18T21:39:04.055Z,15.30
2022-08-18T21:41:40.383Z,15.57
2022-08-18T21:44:15.815Z,15.57
2022-08-18T21:46:46.480Z,15.60
2022-08-18T21:49:24.985Z,14.67
2022-08-18T21:51:53.365Z,15.10
2022-08-18T21:54:23.862Z,15.73
2022-08-18T21:57:20.048Z,15.77
2022-08-18T22:00:19.289Z,16.03
2022-08-18T22:02:52.142Z,15.00
2022-08-18T22:05:58.732Z,15.27
2022-08-18T22:08:22.453Z,15.83
2022-08-18T22:12:00.511Z,16.03
2022-08-18T22:14:53.868Z,17.20
2022-08-18T22:17:30.486Z,17.50
2022-08-18T22:20:34.275Z,16.63
2022-08-18T22:23:24.703Z,17.20
2022-08-18T22:25:53.050Z,17.17
2022-08-18T22:28:26.537Z,17.37
2022-08-18T22:30:55.586Z,17.50
2022-08-18T22:33:23.861Z,18.13
2022-08-18T22:35:56.974Z,16.80
2022-08-18T22:38:29.522Z,16.37
2022-08-18T22:40:59.173Z,16.87
2022-08-18T22:43:27.383Z,17.10
2022-08-18T22:45:55.646Z,17.20
2022-08-18T22:48:23.846Z,17.30
2022-08-18T22:50:52.019Z,17.00
2022-08-18T22:53:21.716Z,17.03
2022-08-18T22:55:53.246Z,17.10
2022-08-18T22:58:26.909Z,16.57
2022-08-18T23:01:01.398Z,16.33
2022-08-18T23:03:41.744Z,15.73
2022-08-18T23:06:11.492Z,16.17
2022-08-18T23:08:54.652Z,16.83
2022-08-18T23:11:24.113Z,16.93
2022-08-18T23:13:52.423Z,17.13
2022-08-18T23:16:30.546Z,16.63
2022-08-18T23:19:02.083Z,17.00
2022-08-18T23:21:34.518Z,17.13
2022-08-18T23:24:05.871Z,17.07
2022-08-18T23:26:34.189Z,17.30
2022-08-18T23:29:02.634Z,16.30
2022-08-18T23:31:31.515Z,16.03
2022-08-18T23:34:00.625Z,16.67
2022-08-18T23:36:29.214Z,15.97
2022-08-18T23:38:57.402Z,16.97
2022-08-18T23:41:26.849Z,16.30
2022-08-18T23:43:54.934Z,16.13
2022-08-18T23:46:25.707Z,16.47
2022-08-18T23:48:55.276Z,15.43
2022-08-18T23:51:29.919Z,15.37
2022-08-18T23:53:59.923Z,16.10
2022-08-18T23:56:30.295Z,14.80
2022-08-18T23:58:59.773Z,15.67
